Pagrindinis puslapis
METAR-TAF:

METAR-TAF

Oro uostai :

Japas, Mikronezija

platuma: 09-29N, ilguma: 138-05E, Aukštis: 28 m

Dabartinis oras

Ataskaita buvo paskelbta 32 minutes, ne 04:52 UTC
Vėjas 5 kt nuo kintamojo kryptimis
Temperatūra 29°C
Drėgmė 79%
Slėgis 1011 hPa
Matomumas: 19.3 km
Mažai debesys ne aukštis 1600 ft
Mažai debesys ne aukštis 13000 ft
Su prošvaistėmis ne aukštis 30000 ft

METAR: PTYA 180452Z VRB05KT 12SM FEW016 FEW130 BKN300 29/25 A2985 RMK SLP110 T02920246

Laikas: 15:24 (05:24 UTC)

Prognozė

Ataskaita buvo paskelbta 5 valandos ir 43 minutes, ne 23:41 UTC
Prognozė galioja nuo 18 metu 00 UTC su 18 metu 24 UTC
Vėjas 8 kt iš Pietų
Matomumas: 10 km
Mažai debesys ne aukštis 1800 ft
Išsisklaidę debesys ne aukštis 5000 ft
Su prošvaistėmis ne aukštis 14000 ft
Liūtis kaimynystėje

TAF: PTYA 172341Z 1800/1824 19008KT P6SM VCSH FEW018 SCT050 BKN140

Orai ataskaitas ir orų prognozės (METAR, TAF).

turimą stotys yra geltonos ir raudonos taškus žemėlapyje.

Perkelti pele per norėdami pamatyti stoties vardą.

Tada spustelėkite, norėdami matyti oro stebėjimo ir prognozės.

Norėdami pakeisti žemėlapį: spustelėkite ant žalios mygtukų su juodo kryžiaus žemyn,; žalią mygtuką su brūkšneliu, jei norite nutolinti; arba žalių rodyklių gretimoms žemėlapius.


METAR-TAF: